Sacramento, California
Traffic Map
Current Weather Conditions
Sacramento, California
Overcast
Overcast
15°
Feels Like: 15°
Wind Chill: 15° Ceiling: 3100
Heat Index: 15° Visibility: 10mi
Dew Point: Wind: 6mph
Humidity: 67% Direction: 160° (SSE)
Pressure: 30.16in Gusts: 0mph
Raw Report DataKSAC 182153Z 16005KT 10SM BKN031 OVC048 15/09 A3016 RMK AO2 SLP211 T01500089
Traffic Incident Summary
Active as of:
Severity:
Category:
InformationThere was an issue retrieving the traffic information for this location. Please try a different location or try again shortly.
Advertisements
Track Severe Weather on mobile